createdAt,value
2018-02-10T00:02:12.452Z,3.43
2018-02-10T00:04:40.808Z,3.43
2018-02-10T00:07:09.134Z,3.49
2018-02-10T00:09:37.499Z,3.43
2018-02-10T00:12:06.578Z,3.44
2018-02-10T00:14:35.663Z,3.43
2018-02-10T00:17:03.988Z,3.46
2018-02-10T00:19:32.318Z,3.54
2018-02-10T00:22:00.641Z,3.49
2018-02-10T00:24:28.965Z,3.55
2018-02-10T00:26:57.392Z,3.53
2018-02-10T00:29:25.873Z,3.56
2018-02-10T00:31:54.196Z,3.55
2018-02-10T00:34:22.512Z,3.55
2018-02-10T00:36:50.863Z,3.57
2018-02-10T00:39:19.971Z,3.67
2018-02-10T00:41:49.036Z,3.60
2018-02-10T00:44:17.378Z,3.51
2018-02-10T00:46:45.701Z,3.52
2018-02-10T00:49:14.832Z,3.53
2018-02-10T00:51:43.260Z,3.52
2018-02-10T00:54:11.564Z,3.41
2018-02-10T00:56:40.662Z,3.59
2018-02-10T00:59:09.743Z,3.55
2018-02-10T01:01:38.126Z,3.75
2018-02-10T01:04:07.290Z,3.65
2018-02-10T01:06:35.615Z,3.58
2018-02-10T01:09:03.929Z,3.56
2018-02-10T01:11:32.243Z,3.59
2018-02-10T01:14:01.360Z,3.48
2018-02-10T01:16:29.673Z,3.52
2018-02-10T01:18:58.016Z,3.49
2018-02-10T01:21:26.317Z,3.42
2018-02-10T01:23:54.661Z,3.40
2018-02-10T01:26:23.000Z,3.43
2018-02-10T01:28:51.425Z,3.48
2018-02-10T01:31:19.822Z,3.47
2018-02-10T01:33:48.178Z,3.62
2018-02-10T01:36:16.499Z,3.42
2018-02-10T01:38:44.825Z,3.35
2018-02-10T01:41:13.139Z,3.31
2018-02-10T01:43:42.288Z,3.28
2018-02-10T01:46:11.379Z,3.28
2018-02-10T01:48:40.661Z,3.34
2018-02-10T01:51:08.999Z,3.38
2018-02-10T01:53:37.304Z,3.26
2018-02-10T01:56:05.652Z,3.26
2018-02-10T01:58:34.128Z,3.22
2018-02-10T02:01:02.435Z,3.31
2018-02-10T02:03:31.522Z,3.25
2018-02-10T02:05:59.829Z,3.39
2018-02-10T02:08:28.923Z,3.38
2018-02-10T02:10:57.998Z,3.30
2018-02-10T02:13:26.376Z,3.22
2018-02-10T02:15:54.717Z,3.19
2018-02-10T02:18:23.044Z,3.20
2018-02-10T02:20:51.383Z,3.33
2018-02-10T02:23:19.720Z,3.35
2018-02-10T02:25:48.120Z,3.32
2018-02-10T02:28:16.416Z,3.27
2018-02-10T02:30:44.759Z,3.18
2018-02-10T02:33:13.064Z,3.13
2018-02-10T02:35:41.391Z,3.21
2018-02-10T02:38:10.457Z,3.21
2018-02-10T02:40:39.201Z,3.29
2018-02-10T02:43:07.882Z,3.25
2018-02-10T02:45:36.200Z,3.34
2018-02-10T02:48:04.534Z,3.28
2018-02-10T02:50:32.839Z,3.27
2018-02-10T02:53:01.179Z,3.16
2018-02-10T02:55:29.729Z,3.18
2018-02-10T02:57:58.900Z,3.10
2018-02-10T03:00:27.348Z,3.10
2018-02-10T03:02:55.793Z,3.14
2018-02-10T03:05:24.877Z,3.11
2018-02-10T03:07:53.180Z,3.27
2018-02-10T03:10:21.519Z,3.35
2018-02-10T03:12:49.820Z,3.47
2018-02-10T03:15:18.132Z,3.24
2018-02-10T03:17:46.449Z,3.24
2018-02-10T03:20:15.537Z,3.13
2018-02-10T03:22:43.853Z,3.13
2018-02-10T03:25:12.206Z,3.13
2018-02-10T03:27:41.300Z,3.27
2018-02-10T03:30:10.400Z,3.18
2018-02-10T03:32:38.784Z,3.23
2018-02-10T03:35:07.098Z,3.24
2018-02-10T03:37:35.436Z,3.22
2018-02-10T03:40:03.882Z,3.21
2018-02-10T03:42:32.408Z,3.27
2018-02-10T03:45:00.732Z,3.25
2018-02-10T03:47:29.301Z,3.25
2018-02-10T03:49:57.649Z,3.30
2018-02-10T03:52:26.039Z,3.36
2018-02-10T03:54:54.375Z,3.30
2018-02-10T03:57:24.038Z,3.30
2018-02-10T03:59:52.370Z,3.30
2018-02-10T04:02:20.663Z,3.24
2018-02-10T04:04:49.002Z,3.41
2018-02-10T04:07:18.081Z,3.36
2018-02-10T04:09:46.386Z,3.41
2018-02-10T04:12:14.755Z,3.36
2018-02-10T04:14:43.861Z,3.32
2018-02-10T04:17:12.264Z,3.26
2018-02-10T04:19:40.576Z,3.29
2018-02-10T04:22:10.365Z,3.12
2018-02-10T04:24:38.708Z,3.30
2018-02-10T04:27:07.013Z,3.22
2018-02-10T04:29:35.338Z,3.18
2018-02-10T04:32:04.440Z,3.21
2018-02-10T04:34:32.761Z,3.20
2018-02-10T04:37:01.106Z,3.29
2018-02-10T04:39:30.187Z,3.31
2018-02-10T04:41:59.248Z,3.26
2018-02-10T04:44:27.735Z,3.16
2018-02-10T04:46:56.061Z,3.26
2018-02-10T04:49:24.479Z,3.18
2018-02-10T04:51:54.297Z,3.26
2018-02-10T04:54:22.646Z,3.20
2018-02-10T04:56:50.947Z,3.19
2018-02-10T04:59:19.270Z,3.31
2018-02-10T05:01:47.595Z,3.31
2018-02-10T05:04:15.898Z,3.21
2018-02-10T05:06:44.996Z,3.18
2018-02-10T05:09:13.375Z,3.17
2018-02-10T05:11:42.494Z,3.26
2018-02-10T05:14:10.830Z,3.19
2018-02-10T05:16:39.209Z,3.24
2018-02-10T05:19:07.535Z,3.26
2018-02-10T05:21:35.884Z,3.20
2018-02-10T05:24:04.328Z,3.17
2018-02-10T05:26:32.638Z,3.21
2018-02-10T05:29:00.967Z,3.14
2018-02-10T05:31:29.274Z,3.19
2018-02-10T05:33:58.381Z,3.19
2018-02-10T05:36:26.709Z,3.18
2018-02-10T05:38:55.024Z,3.19
2018-02-10T05:41:24.138Z,3.19
2018-02-10T05:43:52.472Z,3.37
2018-02-10T05:46:20.790Z,3.47
2018-02-10T05:48:49.097Z,3.59
2018-02-10T05:51:17.540Z,3.39
2018-02-10T05:53:45.870Z,3.42
2018-02-10T05:56:14.355Z,3.46
2018-02-10T05:58:42.694Z,3.55
2018-02-10T06:01:10.990Z,3.34
2018-02-10T06:03:39.344Z,3.45
2018-02-10T06:06:07.754Z,3.54
2018-02-10T06:08:36.927Z,3.39
2018-02-10T06:11:05.225Z,2.97
2018-02-10T06:13:33.885Z,3.10
2018-02-10T06:16:02.375Z,3.22
2018-02-10T06:18:30.693Z,3.37
2018-02-10T06:20:59.030Z,3.34
2018-02-10T06:23:27.329Z,3.28
2018-02-10T06:25:55.679Z,3.49
2018-02-10T06:28:24.154Z,3.50
2018-02-10T06:30:52.490Z,3.44
2018-02-10T06:33:21.677Z,3.38
2018-02-10T06:35:50.919Z,3.35
2018-02-10T06:38:19.259Z,3.39
2018-02-10T06:40:48.337Z,3.43
2018-02-10T06:43:16.718Z,3.40
2018-02-10T06:45:45.799Z,3.13
2018-02-10T06:48:14.922Z,3.23
2018-02-10T06:50:44.024Z,3.21
2018-02-10T06:53:12.405Z,3.19
2018-02-10T06:55:40.755Z,3.19
2018-02-10T06:58:09.904Z,3.55
2018-02-10T07:00:38.369Z,3.34
2018-02-10T07:03:06.768Z,3.26
2018-02-10T07:05:35.101Z,3.24
2018-02-10T07:08:03.544Z,3.17
2018-02-10T07:10:31.884Z,3.30
2018-02-10T07:13:00.365Z,3.39
2018-02-10T07:15:28.836Z,3.34
2018-02-10T07:17:57.250Z,3.43
2018-02-10T07:20:25.595Z,3.54
2018-02-10T07:22:53.920Z,3.21
2018-02-10T07:25:22.335Z,3.66
2018-02-10T07:27:51.183Z,3.63
2018-02-10T07:30:19.579Z,3.34
2018-02-10T07:32:48.027Z,3.47
2018-02-10T07:35:17.054Z,3.50
2018-02-10T07:37:46.147Z,3.41
2018-02-10T07:40:15.999Z,3.50
2018-02-10T07:42:44.439Z,3.68
2018-02-10T07:45:13.533Z,3.47
2018-02-10T07:47:42.639Z,3.33
2018-02-10T07:50:10.968Z,3.43
2018-02-10T07:52:39.284Z,3.53
2018-02-10T07:55:08.402Z,3.64
2018-02-10T07:57:36.909Z,3.41
2018-02-10T08:00:05.266Z,3.51
2018-02-10T08:02:33.611Z,3.46
2018-02-10T08:05:01.968Z,3.33
2018-02-10T08:07:30.306Z,3.57
2018-02-10T08:09:58.644Z,3.36
2018-02-10T08:12:27.723Z,3.25
2018-02-10T08:14:56.800Z,3.33
2018-02-10T08:17:25.136Z,3.23
2018-02-10T08:19:53.721Z,3.42
2018-02-10T08:22:22.073Z,3.26
2018-02-10T08:24:54.506Z,3.19
2018-02-10T08:27:23.626Z,2.93
2018-02-10T08:29:52.883Z,2.93
2018-02-10T08:32:21.336Z,3.11
2018-02-10T08:34:49.693Z,3.29
2018-02-10T08:37:18.765Z,3.12
2018-02-10T08:39:47.312Z,3.55
2018-02-10T08:42:15.679Z,3.48
2018-02-10T08:44:44.259Z,3.29
2018-02-10T08:47:12.786Z,3.70
2018-02-10T08:49:41.897Z,3.64
2018-02-10T08:52:10.223Z,3.45
2018-02-10T08:54:38.573Z,3.60
2018-02-10T08:57:06.909Z,3.57
2018-02-10T08:59:36.026Z,3.79
2018-02-10T09:02:04.375Z,3.59
2018-02-10T09:04:32.703Z,3.40
2018-02-10T09:07:01.085Z,3.67
2018-02-10T09:09:29.436Z,3.67
2018-02-10T09:11:57.802Z,3.96
2018-02-10T09:14:27.140Z,3.78
2018-02-10T09:16:55.479Z,3.76
2018-02-10T09:19:24.641Z,3.70
2018-02-10T09:21:52.951Z,3.72
2018-02-10T09:24:22.079Z,3.53
2018-02-10T09:26:50.401Z,3.63
2018-02-10T09:29:19.576Z,3.85
2018-02-10T09:31:48.694Z,3.67
2018-02-10T09:34:17.018Z,3.51
2018-02-10T09:36:45.322Z,3.68
2018-02-10T09:39:13.653Z,3.52
2018-02-10T09:41:42.019Z,3.88
2018-02-10T09:44:11.116Z,3.56
2018-02-10T09:46:40.273Z,3.58
2018-02-10T09:49:08.590Z,3.66
2018-02-10T09:51:37.026Z,3.44
2018-02-10T09:54:06.109Z,3.49
2018-02-10T09:56:34.413Z,3.30
2018-02-10T09:59:03.087Z,3.38
2018-02-10T10:01:31.443Z,3.59
2018-02-10T10:03:59.774Z,3.50
2018-02-10T10:06:28.233Z,3.42
2018-02-10T10:08:57.444Z,3.55
2018-02-10T10:11:26.643Z,3.62
2018-02-10T10:13:55.808Z,3.32
2018-02-10T10:16:24.231Z,3.43
2018-02-10T10:18:52.655Z,3.55
2018-02-10T10:21:20.992Z,3.54
2018-02-10T10:23:49.397Z,3.57
2018-02-10T10:26:17.863Z,3.37
2018-02-10T10:28:46.202Z,3.32
2018-02-10T10:31:15.326Z,3.58
2018-02-10T10:33:43.710Z,3.68
2018-02-10T10:36:12.288Z,3.35
2018-02-10T10:38:40.610Z,3.62
2018-02-10T10:41:09.007Z,3.59
2018-02-10T10:43:38.117Z,3.76
2018-02-10T10:46:06.527Z,3.72
2018-02-10T10:48:35.248Z,3.77
2018-02-10T10:51:03.604Z,3.57
2018-02-10T10:53:31.940Z,3.64
2018-02-10T10:56:00.551Z,3.82
2018-02-10T10:58:29.001Z,3.63
2018-02-10T11:00:57.620Z,3.98
2018-02-10T11:03:26.062Z,3.68
2018-02-10T11:05:54.371Z,3.53
2018-02-10T11:08:22.818Z,3.71
2018-02-10T11:10:51.168Z,4.12
2018-02-10T11:13:20.299Z,4.01
2018-02-10T11:15:48.683Z,3.62
2018-02-10T11:18:16.977Z,3.71
2018-02-10T11:20:45.315Z,3.79
2018-02-10T11:23:13.634Z,3.80
2018-02-10T11:25:41.988Z,3.81
2018-02-10T11:28:10.287Z,3.80
2018-02-10T11:30:39.353Z,3.79
2018-02-10T11:33:07.699Z,3.90
2018-02-10T11:35:37.030Z,4.01
2018-02-10T11:38:05.383Z,3.87
2018-02-10T11:40:34.691Z,3.83
2018-02-10T11:43:03.023Z,3.70
2018-02-10T11:45:31.497Z,3.71
2018-02-10T11:47:59.912Z,3.70
2018-02-10T11:50:29.184Z,3.79
2018-02-10T11:52:58.442Z,3.81
2018-02-10T11:55:26.759Z,3.74
2018-02-10T11:57:55.285Z,3.83
2018-02-10T12:00:23.663Z,4.01
2018-02-10T12:02:52.102Z,3.81
2018-02-10T12:05:21.241Z,4.03
2018-02-10T12:07:49.788Z,3.89
2018-02-10T12:10:18.996Z,3.97
2018-02-10T12:12:48.165Z,4.08
2018-02-10T12:15:16.650Z,4.06
2018-02-10T12:17:45.010Z,3.98
2018-02-10T12:20:13.481Z,4.05
2018-02-10T12:22:41.949Z,4.04
2018-02-10T12:25:10.263Z,4.18
2018-02-10T12:27:38.620Z,4.17
2018-02-10T12:30:06.929Z,4.22
2018-02-10T12:32:36.162Z,4.48
2018-02-10T12:35:04.479Z,4.35
2018-02-10T12:37:32.966Z,4.16
2018-02-10T12:40:01.296Z,4.03
2018-02-10T12:42:29.634Z,4.13
2018-02-10T12:44:58.907Z,4.14
2018-02-10T12:47:27.290Z,4.28
2018-02-10T12:49:55.604Z,4.18
2018-02-10T12:52:23.976Z,4.23
2018-02-10T12:54:52.462Z,4.02
2018-02-10T12:57:20.821Z,4.08
2018-02-10T12:59:50.876Z,4.26
2018-02-10T13:02:19.186Z,4.37
2018-02-10T13:04:47.848Z,4.21
2018-02-10T13:07:16.574Z,4.14
2018-02-10T13:09:44.998Z,4.12
2018-02-10T13:12:13.327Z,4.19
2018-02-10T13:14:42.509Z,4.09
2018-02-10T13:17:11.030Z,3.96
2018-02-10T13:19:39.342Z,3.95
2018-02-10T13:22:07.705Z,4.11
2018-02-10T13:24:36.016Z,4.14
2018-02-10T13:27:05.187Z,4.03
2018-02-10T13:29:33.518Z,4.16
2018-02-10T13:32:02.837Z,4.10
2018-02-10T13:34:31.231Z,4.39
2018-02-10T13:36:59.528Z,4.29
2018-02-10T13:39:27.830Z,4.11
2018-02-10T13:41:57.077Z,4.00
2018-02-10T13:44:25.428Z,3.97
2018-02-10T13:46:54.746Z,3.89
2018-02-10T13:49:23.083Z,4.06
2018-02-10T13:51:51.655Z,4.18
2018-02-10T13:54:20.170Z,4.25
2018-02-10T13:56:48.503Z,4.31
2018-02-10T13:59:17.626Z,4.24
2018-02-10T14:01:46.707Z,4.26
2018-02-10T14:04:15.819Z,4.30
2018-02-10T14:06:45.258Z,4.38
2018-02-10T14:09:13.554Z,4.43
2018-02-10T14:11:41.994Z,4.83
2018-02-10T14:14:10.347Z,4.76
2018-02-10T14:16:39.528Z,4.55
2018-02-10T14:19:08.208Z,4.45
2018-02-10T14:21:37.373Z,4.32
2018-02-10T14:24:05.954Z,4.31
2018-02-10T14:26:34.339Z,4.31
2018-02-10T14:29:03.876Z,4.23
2018-02-10T14:31:33.078Z,4.17
2018-02-10T14:34:02.383Z,4.19
2018-02-10T14:36:31.622Z,4.13
2018-02-10T14:39:00.350Z,4.12
2018-02-10T14:41:28.687Z,4.23
2018-02-10T14:43:57.055Z,4.19
2018-02-10T14:46:25.373Z,4.02
2018-02-10T14:48:54.561Z,4.09
2018-02-10T14:51:23.113Z,4.10
2018-02-10T14:53:51.435Z,4.02
2018-02-10T14:56:20.590Z,4.01
2018-02-10T14:58:48.916Z,3.94
2018-02-10T15:01:18.065Z,4.02
2018-02-10T15:03:46.543Z,4.12
2018-02-10T15:06:15.072Z,4.13
2018-02-10T15:08:43.409Z,4.10
2018-02-10T15:11:11.752Z,4.11
2018-02-10T15:13:40.080Z,4.15
2018-02-10T15:16:08.450Z,4.26
2018-02-10T15:18:36.900Z,4.24
2018-02-10T15:21:05.205Z,4.12
2018-02-10T15:23:33.615Z,4.09
2018-02-10T15:26:02.063Z,4.09
2018-02-10T15:28:30.379Z,4.09
2018-02-10T15:31:17.294Z,4.12
2018-02-10T15:34:03.450Z,4.17
2018-02-10T15:36:31.792Z,4.10
2018-02-10T15:39:00.094Z,4.07
2018-02-10T15:41:28.467Z,4.10
2018-02-10T15:43:57.340Z,4.08
2018-02-10T15:46:25.694Z,4.12
2018-02-10T15:48:54.295Z,4.13
2018-02-10T15:51:22.728Z,4.18
2018-02-10T15:53:51.841Z,4.08
2018-02-10T15:56:23.736Z,4.02
2018-02-10T15:58:53.155Z,4.08
2018-02-10T16:01:22.597Z,4.14
2018-02-10T16:03:51.759Z,4.07
2018-02-10T16:06:21.255Z,4.13
2018-02-10T16:08:49.578Z,4.16
2018-02-10T16:11:18.720Z,4.01
2018-02-10T16:13:47.057Z,4.01
2018-02-10T16:16:15.383Z,3.99
2018-02-10T16:18:45.113Z,4.10
2018-02-10T16:21:13.487Z,4.02
2018-02-10T16:23:41.843Z,3.99
2018-02-10T16:26:10.532Z,3.98
2018-02-10T16:28:39.525Z,4.01
2018-02-10T16:31:07.877Z,3.96
2018-02-10T16:33:36.477Z,4.01
2018-02-10T16:36:05.186Z,3.91
2018-02-10T16:38:33.520Z,3.95
2018-02-10T16:41:02.057Z,3.97
2018-02-10T16:43:31.180Z,4.01
2018-02-10T16:45:59.494Z,4.05
2018-02-10T16:48:27.857Z,4.08
2018-02-10T16:50:56.270Z,4.08
2018-02-10T16:53:24.830Z,4.00
2018-02-10T16:55:53.552Z,4.11
2018-02-10T16:58:22.633Z,4.15
2018-02-10T17:00:51.181Z,4.14
2018-02-10T17:03:19.486Z,4.07
2018-02-10T17:05:47.930Z,4.09
2018-02-10T17:08:16.307Z,4.08
2018-02-10T17:10:44.749Z,4.15
2018-02-10T17:13:13.378Z,4.08
2018-02-10T17:15:41.692Z,4.01
2018-02-10T17:18:10.798Z,3.99
2018-02-10T17:20:39.142Z,4.03
2018-02-10T17:23:08.234Z,4.12
2018-02-10T17:25:37.465Z,4.07
2018-02-10T17:28:06.693Z,4.05
2018-02-10T17:30:35.020Z,4.03
2018-02-10T17:33:03.512Z,4.05
2018-02-10T17:35:32.658Z,4.01
2018-02-10T17:38:01.222Z,3.99
2018-02-10T17:40:29.539Z,4.03
2018-02-10T17:42:58.272Z,3.90
2018-02-10T17:45:26.663Z,3.90
2018-02-10T17:47:55.081Z,3.88
2018-02-10T17:50:23.380Z,3.89
2018-02-10T17:52:52.511Z,3.90
2018-02-10T17:55:20.853Z,3.80
2018-02-10T17:57:49.945Z,3.80
2018-02-10T18:00:19.479Z,3.87
2018-02-10T18:02:48.370Z,3.76
2018-02-10T18:05:16.938Z,3.86
2018-02-10T18:07:45.270Z,3.94
2018-02-10T18:10:13.579Z,3.88
2018-02-10T18:12:43.418Z,3.96
2018-02-10T18:15:11.735Z,3.95
2018-02-10T18:17:40.238Z,3.88
2018-02-10T18:20:10.145Z,3.96
2018-02-10T18:22:38.677Z,3.99
2018-02-10T18:25:07.660Z,3.87
2018-02-10T18:27:36.086Z,4.02
2018-02-10T18:30:05.132Z,3.86
2018-02-10T18:32:33.692Z,3.83
2018-02-10T18:35:03.645Z,3.89
2018-02-10T18:37:31.986Z,3.89
2018-02-10T18:40:00.317Z,3.87
2018-02-10T18:42:28.658Z,3.92
2018-02-10T18:44:56.983Z,4.02
2018-02-10T18:47:25.518Z,4.02
2018-02-10T18:49:53.864Z,3.94
2018-02-10T18:52:23.053Z,3.92
2018-02-10T18:54:52.203Z,3.95
2018-02-10T18:57:20.534Z,3.97
2018-02-10T18:59:49.719Z,3.91
2018-02-10T19:02:19.200Z,3.96
2018-02-10T19:04:47.608Z,3.90
2018-02-10T19:07:16.765Z,3.81
2018-02-10T19:09:45.937Z,3.88
2018-02-10T19:12:14.395Z,3.85
2018-02-10T19:14:42.938Z,3.87
2018-02-10T19:17:12.193Z,3.90
2018-02-10T19:19:40.621Z,3.91
2018-02-10T19:22:09.041Z,3.88
2018-02-10T19:24:37.369Z,3.95
2018-02-10T19:27:05.710Z,3.97
2018-02-10T19:29:34.138Z,3.87
2018-02-10T19:32:03.427Z,3.99
2018-02-10T19:34:32.515Z,4.06
2018-02-10T19:37:01.174Z,3.95
2018-02-10T19:39:29.487Z,3.93
2018-02-10T19:41:58.594Z,3.97
2018-02-10T19:44:27.964Z,3.89
2018-02-10T19:46:57.188Z,4.03
2018-02-10T19:49:26.453Z,4.02
2018-02-10T19:51:54.903Z,4.02
2018-02-10T19:54:23.475Z,3.92
2018-02-10T19:56:51.837Z,3.87
2018-02-10T19:59:20.366Z,3.91
2018-02-10T20:01:48.971Z,3.99
2018-02-10T20:04:17.960Z,4.01
2018-02-10T20:06:46.301Z,4.01
2018-02-10T20:09:14.671Z,4.06
2018-02-10T20:11:43.971Z,3.97
2018-02-10T20:14:12.319Z,3.91
2018-02-10T20:16:41.582Z,3.91
2018-02-10T20:19:10.692Z,4.00
2018-02-10T20:21:39.807Z,4.04
2018-02-10T20:24:08.196Z,4.01
2018-02-10T20:26:36.543Z,4.11
2018-02-10T20:29:05.825Z,3.94
2018-02-10T20:31:34.333Z,3.83
2018-02-10T20:34:03.938Z,3.94
2018-02-10T20:36:32.316Z,4.00
2018-02-10T20:39:01.953Z,3.99
2018-02-10T20:41:30.334Z,3.90
2018-02-10T20:43:58.722Z,3.83
2018-02-10T20:46:27.165Z,3.97
2018-02-10T20:48:56.341Z,3.98
2018-02-10T20:51:24.681Z,4.04
2018-02-10T20:53:52.998Z,4.07
2018-02-10T20:56:22.108Z,4.01
2018-02-10T20:58:50.457Z,4.03
2018-02-10T21:01:19.056Z,3.91
2018-02-10T21:03:48.202Z,3.87
2018-02-10T21:06:16.532Z,3.88
2018-02-10T21:08:45.719Z,3.97
2018-02-10T21:11:14.796Z,3.95
2018-02-10T21:13:43.287Z,3.98
2018-02-10T21:16:12.250Z,3.96
2018-02-10T21:18:40.669Z,3.81
2018-02-10T21:21:09.049Z,3.96
2018-02-10T21:23:38.215Z,3.90
2018-02-10T21:26:06.567Z,3.90
2018-02-10T21:28:34.936Z,3.86
2018-02-10T21:31:03.312Z,3.71
2018-02-10T21:33:31.664Z,3.82
2018-02-10T21:36:00.033Z,3.91
2018-02-10T21:38:29.185Z,3.83
2018-02-10T21:40:57.593Z,3.86
2018-02-10T21:43:26.683Z,3.71
2018-02-10T21:45:55.778Z,3.63
2018-02-10T21:48:24.885Z,3.83
2018-02-10T21:50:53.983Z,3.74
2018-02-10T21:53:22.291Z,3.58
2018-02-10T21:55:50.637Z,3.64
2018-02-10T21:58:19.134Z,3.64
2018-02-10T22:00:47.689Z,3.62
2018-02-10T22:03:16.819Z,3.52
2018-02-10T22:05:45.125Z,3.56
2018-02-10T22:08:13.464Z,3.65
2018-02-10T22:10:41.778Z,3.64
2018-02-10T22:13:10.124Z,3.78
2018-02-10T22:15:38.440Z,3.77
2018-02-10T22:18:06.814Z,3.71
2018-02-10T22:20:35.158Z,3.69
2018-02-10T22:23:03.534Z,3.68
2018-02-10T22:25:31.876Z,3.63
2018-02-10T22:28:00.183Z,3.65
2018-02-10T22:30:28.546Z,3.61
2018-02-10T22:32:56.882Z,3.61
2018-02-10T22:35:25.322Z,3.54
2018-02-10T22:37:53.621Z,3.57
2018-02-10T22:40:21.971Z,3.58
2018-02-10T22:42:50.291Z,3.51
2018-02-10T22:45:18.702Z,3.55
2018-02-10T22:47:47.232Z,3.53
2018-02-10T22:50:15.576Z,3.55
2018-02-10T22:52:43.934Z,3.56
2018-02-10T22:55:12.253Z,3.53
2018-02-10T22:57:40.609Z,3.57
2018-02-10T23:00:08.914Z,3.49
2018-02-10T23:02:37.399Z,3.56
2018-02-10T23:05:05.908Z,3.52
2018-02-10T23:07:35.034Z,3.55
2018-02-10T23:10:03.666Z,3.70
2018-02-10T23:12:31.985Z,3.65
2018-02-10T23:15:00.324Z,3.58
2018-02-10T23:17:29.401Z,3.64
2018-02-10T23:19:57.742Z,3.64
2018-02-10T23:22:26.057Z,3.61
2018-02-10T23:24:54.391Z,3.58
2018-02-10T23:27:22.774Z,3.61
2018-02-10T23:29:51.238Z,3.56
2018-02-10T23:32:19.554Z,3.51
2018-02-10T23:34:47.908Z,3.56
2018-02-10T23:37:16.238Z,3.61
2018-02-10T23:39:44.569Z,3.78
2018-02-10T23:42:13.863Z,3.76
2018-02-10T23:44:42.176Z,3.68
2018-02-10T23:47:10.570Z,3.47
2018-02-10T23:49:39.665Z,3.38
2018-02-10T23:52:08.767Z,3.49
2018-02-10T23:54:37.114Z,3.44
2018-02-10T23:57:06.971Z,3.35
2018-02-10T23:59:35.286Z,3.32
